La Pryor, Texas
Current Conditions -  °F | °C
As of 5:15 PM on Friday 31 Oct 2014 (Local Time) from KUVA Reporting Station
Clear Clear  
Wind Chill: 78°   Ceiling: Unl
Heat Index: 78°   Visibility: 10mi
Dew Point: 39°   Wind: 10mph
Humidity: 25%   Direction: 100°E
Pressure: 30.23"   Gusts: NA
Location:  28.94°N, 99.85°W
Report Text: KUVA 312215Z AUTO 10009KT 10SM CLR 26/04 A3023 RMK AO2 T02550041
Loading
Personal Weather Stations






























Interactive Weather Map
Tropical Storm Tracking
New forecast layout! Learn more

10-Day Weather Forecast

Advertisements
Track Severe Weather on mobile